Aurora, Iowa
Current Conditions -  °F | °C
As of 10:35 PM on Thursday 20 Nov 2014 (Local Time) from KOLZ Reporting Station
Clear Clear  
Wind Chill: -4°   Ceiling: Unl
Heat Index:   Visibility: 10mi
Dew Point:   Wind: 5mph
Humidity: 78%   Direction: 240°WSW
Pressure: 30.29"   Gusts: NA
Location:  42.62°N, 91.73°W
Report Text: KOLZ 210435Z AUTO 24004KT 10SM CLR M15/M18 A3029 RMK AO2
Loading
Personal Weather Stations






























Interactive Weather Map New forecast layout! Learn more

10-Day Weather Forecast

Advertisements
Track Severe Weather on mobile